Sas van Gent, Netherlands
Current Conditions -  °F | °C
As of 11:25 AM on Saturday 22 Nov 2014 (Local Time) from EHFS Reporting Station
Clear Clear  
Wind Chill: 52°   Ceiling: Unl
Heat Index: 52°   Visibility: 6mi
Dew Point: 48°   Wind: 13mph
Humidity: 88%   Direction: 160°SSE
Pressure: 29.97"   Gusts: NA
Location:  51.23°N, 3.8°E
Report Text: EHFS 221025Z AUTO 16011KT 9999 NSC 11/09 Q1015
Loading
Personal Weather Stations






























Interactive Weather Map New forecast layout! Learn more

10-Day Weather Forecast

Advertisements
Track Severe Weather on mobile